Time;durP1;ratioP1;P1;durP2;ratioP2;P2;SDS_P1;SDS_P2;PMS_P1;PMS_P2;Temp;Humidity;BMP_temperature;BMP_pressure;BME280_temperature;BME280_humidity;BME280_pressure;Samples;Min_cycle;Max_cycle;Signal;HPM_P1;HPM_P2
2021/01/03 00:01:09;;;;;;;27.60;18.03;;;3.60;99.90;;;;;;5155579;27;20456;-28
2021/01/03 00:03:35;;;;;;;29.77;19.70;;;3.50;99.90;;;;;;5156045;27;20774;-28
2021/01/03 00:06:02;;;;;;;29.60;19.60;;;3.50;99.90;;;;;;5155760;27;20446;-29
2021/01/03 00:08:29;;;;;;;29.17;17.90;;;3.40;99.90;;;;;;5155165;27;20433;-28
2021/01/03 00:10:55;;;;;;;31.40;20.07;;;3.40;99.90;;;;;;5155383;27;20437;-29
2021/01/03 00:13:22;;;;;;;30.30;19.40;;;3.30;99.90;;;;;;5155285;27;20465;-29
2021/01/03 00:15:48;;;;;;;26.83;19.27;;;3.30;99.90;;;;;;5156405;27;20716;-28
2021/01/03 00:18:16;;;;;;;31.90;21.23;;;3.40;99.90;;;;;;5155443;27;20437;-28
2021/01/03 00:20:42;;;;;;;28.13;19.57;;;3.30;99.90;;;;;;5155640;27;20913;-29
2021/01/03 00:23:09;;;;;;;29.63;18.60;;;3.40;99.90;;;;;;5156122;27;20440;-27
2021/01/03 00:25:35;;;;;;;29.47;19.23;;;3.40;99.90;;;;;;5155989;27;20472;-28
2021/01/03 00:28:02;;;;;;;28.47;19.00;;;3.40;99.90;;;;;;5155069;27;20436;-28
2021/01/03 00:30:29;;;;;;;31.60;18.90;;;3.40;99.90;;;;;;5154211;27;20494;-28
2021/01/03 00:32:56;;;;;;;31.77;21.03;;;3.40;99.90;;;;;;5154957;27;20441;-29
2021/01/03 00:35:28;;;;;;;31.80;20.97;;;3.30;99.90;;;;;;5155242;27;20429;-28
2021/01/03 00:37:58;;;;;;;27.90;18.80;;;3.30;99.90;;;;;;5155261;27;20443;-29
2021/01/03 00:40:25;;;;;;;29.93;21.00;;;3.40;99.90;;;;;;5155687;27;20532;-29
2021/01/03 00:42:52;;;;;;;32.07;20.70;;;3.40;99.90;;;;;;5155886;27;20445;-28
2021/01/03 00:45:18;;;;;;;31.07;20.07;;;3.20;99.90;;;;;;5155493;27;20781;-29
2021/01/03 00:47:46;;;;;;;34.07;20.03;;;3.20;99.90;;;;;;5155409;27;21045;-27
2021/01/03 00:50:13;;;;;;;31.17;21.07;;;3.20;99.90;;;;;;5155711;27;20563;-28
2021/01/03 00:52:40;;;;;;;34.10;21.00;;;3.30;99.90;;;;;;5155906;27;20433;-27
2021/01/03 00:55:08;;;;;;;33.57;21.43;;;3.40;99.90;;;;;;5155557;27;20437;-29
2021/01/03 00:57:36;;;;;;;37.73;22.23;;;3.40;99.90;;;;;;5155127;27;20497;-28
2021/01/03 01:00:07;;;;;;;34.90;21.37;;;3.50;99.90;;;;;;5155632;27;20433;-28
2021/01/03 01:02:35;;;;;;;34.77;21.53;;;3.60;99.90;;;;;;5155780;27;20457;-28
2021/01/03 01:05:01;;;;;;;34.77;21.60;;;3.60;99.90;;;;;;5154637;27;20517;-28
2021/01/03 01:07:28;;;;;;;28.57;19.23;;;3.60;99.90;;;;;;5154759;27;21120;-28
2021/01/03 01:09:55;;;;;;;29.20;20.10;;;3.50;99.90;;;;;;5154500;27;20434;-29
2021/01/03 01:12:22;;;;;;;34.73;21.10;;;3.50;99.90;;;;;;5154807;27;20440;-29
2021/01/03 01:14:48;;;;;;;31.17;19.57;;;3.50;99.90;;;;;;5155820;27;20847;-28
2021/01/03 01:17:15;;;;;;;32.30;21.10;;;3.50;99.90;;;;;;5154925;27;20433;-28
2021/01/03 01:19:42;;;;;;;34.10;22.23;;;3.50;99.90;;;;;;5154551;27;20514;-28
2021/01/03 01:22:08;;;;;;;31.90;20.73;;;3.50;99.90;;;;;;5155334;27;20457;-29
2021/01/03 01:24:35;;;;;;;36.23;22.23;;;3.50;99.90;;;;;;5154556;27;20429;-28
2021/01/03 01:27:03;;;;;;;30.03;20.53;;;3.60;99.90;;;;;;5154759;27;20468;-29
2021/01/03 01:29:29;;;;;;;35.97;23.00;;;3.60;99.90;;;;;;5155029;27;20437;-29
2021/01/03 01:31:55;;;;;;;31.77;21.47;;;3.60;99.90;;;;;;5155039;27;20449;-27
2021/01/03 01:34:22;;;;;;;35.17;22.03;;;3.70;99.90;;;;;;5154505;27;20870;-28
2021/01/03 01:36:49;;;;;;;33.20;20.97;;;3.70;99.90;;;;;;5154999;27;20441;-29
2021/01/03 01:39:16;;;;;;;35.10;21.30;;;3.70;99.90;;;;;;5153416;27;20425;-28
2021/01/03 01:41:42;;;;;;;32.77;21.27;;;3.70;99.90;;;;;;5154406;27;20465;-28
2021/01/03 01:44:09;;;;;;;38.60;22.83;;;3.70;99.90;;;;;;5154213;27;20858;-28
2021/01/03 01:46:44;;;;;;;35.57;22.47;;;3.80;99.90;;;;;;5154387;27;20441;-29
2021/01/03 01:49:14;;;;;;;33.13;21.73;;;3.80;99.90;;;;;;5153344;27;20456;-28
2021/01/03 01:51:44;;;;;;;32.33;21.70;;;3.80;99.90;;;;;;5152974;27;20749;-29
2021/01/03 01:54:18;;;;;;;33.90;20.83;;;3.80;99.90;;;;;;5152536;27;20850;-28
2021/01/03 01:56:51;;;;;;;35.87;21.53;;;3.90;99.90;;;;;;5153229;27;20450;-28
2021/01/03 01:59:29;;;;;;;36.93;20.60;;;3.80;99.90;;;;;;5153751;27;20846;-28
2021/01/03 02:02:03;;;;;;;35.70;22.10;;;3.70;99.90;;;;;;5153539;27;20500;-28
2021/01/03 02:04:34;;;;;;;41.17;25.30;;;3.60;99.90;;;;;;5153610;27;20803;-28
2021/01/03 02:07:06;;;;;;;38.60;21.37;;;3.60;99.90;;;;;;5153192;27;20444;-27
2021/01/03 02:09:44;;;;;;;37.70;22.80;;;3.60;99.90;;;;;;5153600;27;20480;-29
2021/01/03 02:12:15;;;;;;;35.80;22.03;;;3.60;99.90;;;;;;5153947;27;20433;-29
2021/01/03 02:14:43;;;;;;;39.30;22.70;;;3.60;99.90;;;;;;5153492;27;20429;-28
2021/01/03 02:17:10;;;;;;;35.10;20.70;;;3.70;99.90;;;;;;5154562;27;20877;-29
2021/01/03 02:19:36;;;;;;;40.97;22.50;;;3.70;99.90;;;;;;5153656;27;20487;-28
2021/01/03 02:22:11;;;;;;;42.87;22.80;;;3.70;99.90;;;;;;5153643;27;21083;-28
2021/01/03 02:24:44;;;;;;;34.40;22.60;;;3.70;99.90;;;;;;5153552;27;20437;-29
2021/01/03 02:27:22;;;;;;;38.40;22.00;;;3.70;99.90;;;;;;5153419;27;20885;-27
2021/01/03 02:29:51;;;;;;;33.03;20.30;;;3.70;99.90;;;;;;5153647;27;20849;-29
2021/01/03 02:32:19;;;;;;;37.33;21.23;;;3.70;99.90;;;;;;5153366;27;20436;-27
2021/01/03 02:34:49;;;;;;;41.80;23.40;;;3.80;99.90;;;;;;5152513;27;20453;-28
2021/01/03 02:37:24;;;;;;;39.83;21.70;;;3.80;99.90;;;;;;5153058;27;20452;-27
2021/01/03 02:39:56;;;;;;;33.50;21.13;;;3.80;99.90;;;;;;5153772;27;20738;-28
2021/01/03 02:42:26;;;;;;;35.63;20.90;;;3.80;99.90;;;;;;5134927;27;20453;-29
2021/01/03 02:44:53;;;;;;;38.97;22.97;;;3.80;99.90;;;;;;5152924;27;20437;-29
2021/01/03 02:47:23;;;;;;;40.23;23.50;;;3.80;99.90;;;;;;5153260;27;20436;-29
2021/01/03 02:49:50;;;;;;;32.10;19.90;;;3.80;99.90;;;;;;5152783;27;20446;-28
2021/01/03 02:52:23;;;;;;;34.20;21.73;;;3.70;99.90;;;;;;5152958;27;20440;-29
2021/01/03 02:54:52;;;;;;;33.87;19.30;;;3.70;99.90;;;;;;5153140;27;20414;-29
2021/01/03 02:57:18;;;;;;;37.27;22.20;;;3.70;99.90;;;;;;5153121;27;20472;-27
2021/01/03 02:59:46;;;;;;;35.33;21.23;;;3.70;99.90;;;;;;5153433;27;20462;-28
2021/01/03 03:02:12;;;;;;;35.13;21.00;;;3.70;99.90;;;;;;5152996;27;20894;-29
2021/01/03 03:04:39;;;;;;;30.83;19.30;;;3.70;99.90;;;;;;5153964;27;21041;-31
2021/01/03 03:07:05;;;;;;;36.50;22.03;;;3.70;99.90;;;;;;5153681;27;20475;-27
2021/01/03 03:09:32;;;;;;;31.13;21.83;;;3.70;99.90;;;;;;5153404;27;20448;-28
2021/01/03 03:11:59;;;;;;;31.83;21.47;;;3.70;99.90;;;;;;5153686;27;20988;-29
2021/01/03 03:14:25;;;;;;;32.43;20.37;;;3.70;99.90;;;;;;5153573;27;20452;-29
2021/01/03 03:16:56;;;;;;;30.33;19.00;;;3.60;99.90;;;;;;5153106;27;20748;-29
2021/01/03 03:19:23;;;;;;;32.17;19.63;;;3.60;99.90;;;;;;5152809;27;20529;-28
2021/01/03 03:21:50;;;;;;;28.97;19.20;;;3.60;99.90;;;;;;5153082;27;20449;-29
2021/01/03 03:24:17;;;;;;;36.83;22.07;;;3.60;99.90;;;;;;5153866;27;20756;-28
2021/01/03 03:26:43;;;;;;;32.43;20.37;;;3.60;99.90;;;;;;5152969;27;20476;-26
2021/01/03 03:29:10;;;;;;;37.00;21.70;;;3.50;99.90;;;;;;5153785;27;20437;-28
2021/01/03 03:31:36;;;;;;;35.23;20.90;;;3.50;99.90;;;;;;5152155;27;20437;-29
2021/01/03 03:34:04;;;;;;;36.97;21.43;;;3.40;99.90;;;;;;5152747;27;20494;-28
2021/01/03 03:36:30;;;;;;;34.27;20.63;;;3.30;99.90;;;;;;5152318;27;20468;-28
2021/01/03 03:38:57;;;;;;;32.43;19.07;;;3.30;99.90;;;;;;5152571;27;20441;-27
2021/01/03 03:41:24;;;;;;;36.70;20.50;;;3.20;99.90;;;;;;5153162;27;20465;-29
2021/01/03 03:43:51;;;;;;;33.27;19.67;;;3.10;99.90;;;;;;5153062;27;20437;-27
2021/01/03 03:46:17;;;;;;;33.43;20.00;;;3.10;99.90;;;;;;5151843;27;20469;-28
2021/01/03 03:48:44;;;;;;;36.77;22.80;;;3.20;99.90;;;;;;5152159;27;21047;-29
2021/01/03 03:51:16;;;;;;;34.17;19.80;;;3.20;99.90;;;;;;5152146;27;20427;-29
2021/01/03 03:53:43;;;;;;;30.20;19.77;;;3.20;99.90;;;;;;5151842;27;20865;-28
2021/01/03 03:56:10;;;;;;;33.27;20.83;;;3.20;99.90;;;;;;5152027;27;20437;-27
2021/01/03 03:58:37;;;;;;;32.13;20.00;;;3.20;99.90;;;;;;5151657;27;20433;-28
2021/01/03 04:01:05;;;;;;;30.57;18.50;;;3.20;99.90;;;;;;5152750;27;20472;-28
2021/01/03 04:03:31;;;;;;;32.00;20.27;;;3.20;99.90;;;;;;5152799;27;20449;-30
2021/01/03 04:05:59;;;;;;;30.93;18.07;;;3.20;99.90;;;;;;5152033;27;20433;-29
2021/01/03 04:08:26;;;;;;;30.50;18.97;;;3.30;99.90;;;;;;5151555;27;20796;-28
2021/01/03 04:10:53;;;;;;;32.70;20.10;;;3.30;99.90;;;;;;5151163;27;20433;-28
2021/01/03 04:13:19;;;;;;;28.33;18.13;;;3.30;99.90;;;;;;5151722;27;20433;-27
2021/01/03 04:15:46;;;;;;;33.17;19.57;;;3.30;99.90;;;;;;5152083;27;21055;-28
2021/01/03 04:18:13;;;;;;;30.70;20.00;;;3.30;99.90;;;;;;5150989;27;20447;-28
2021/01/03 04:20:40;;;;;;;30.93;19.17;;;3.30;99.90;;;;;;5151957;27;20899;-29
2021/01/03 04:23:08;;;;;;;32.20;19.47;;;3.20;99.90;;;;;;5151767;27;20438;-28
2021/01/03 04:25:36;;;;;;;29.60;18.93;;;3.30;99.90;;;;;;5151948;27;20440;-27
2021/01/03 04:28:04;;;;;;;31.30;18.47;;;3.30;99.90;;;;;;5150701;27;20425;-28
2021/01/03 04:30:30;;;;;;;34.83;19.70;;;3.30;99.90;;;;;;5152270;27;20433;-29
2021/01/03 04:32:57;;;;;;;29.13;18.10;;;3.30;99.90;;;;;;5154898;27;20422;-28
2021/01/03 04:35:24;;;;;;;31.90;19.67;;;3.30;99.90;;;;;;5154892;27;21208;-28
2021/01/03 04:37:52;;;;;;;32.90;20.47;;;3.30;99.90;;;;;;5155995;27;20751;-27
2021/01/03 04:40:22;;;;;;;29.23;18.50;;;3.30;99.90;;;;;;5155536;27;20429;-30
2021/01/03 04:42:54;;;;;;;32.77;20.00;;;3.30;99.90;;;;;;5155541;27;20560;-27
2021/01/03 04:45:27;;;;;;;29.43;19.90;;;3.30;99.90;;;;;;5155544;27;20433;-28
2021/01/03 04:47:57;;;;;;;32.57;17.97;;;3.20;99.90;;;;;;5155002;27;20464;-28
2021/01/03 04:50:38;;;;;;;29.03;18.70;;;3.10;99.90;;;;;;5153061;27;20433;-28
2021/01/03 04:53:27;;;;;;;28.40;19.27;;;3.10;99.90;;;;;;5154155;27;20432;-28
2021/01/03 04:56:00;;;;;;;35.80;19.57;;;3.10;99.90;;;;;;5139114;27;20489;-28
2021/01/03 04:58:35;;;;;;;29.77;19.30;;;3.20;99.90;;;;;;5154933;27;20883;-28
2021/01/03 05:01:20;;;;;;;28.70;18.07;;;3.20;99.90;;;;;;5154054;27;20433;-28
2021/01/03 05:04:31;;;;;;;30.40;18.73;;;3.30;99.90;;;;;;5154167;27;20460;-29
2021/01/03 05:07:03;;;;;;;29.50;19.23;;;3.30;99.90;;;;;;5154293;27;20441;-27
2021/01/03 05:09:29;;;;;;;28.80;17.57;;;3.30;99.90;;;;;;5154753;27;20444;-29
2021/01/03 05:12:02;;;;;;;27.07;16.40;;;3.30;99.90;;;;;;5153213;27;20449;-28
2021/01/03 05:14:35;;;;;;;28.80;16.60;;;3.30;99.90;;;;;;5154425;27;20437;-27
2021/01/03 05:17:02;;;;;;;22.47;16.80;;;3.30;99.90;;;;;;5153887;27;20544;-28
2021/01/03 05:19:29;;;;;;;23.87;16.53;;;3.40;99.90;;;;;;5152990;27;20508;-28
2021/01/03 05:21:57;;;;;;;32.20;18.40;;;3.40;99.90;;;;;;5153137;27;20465;-27
2021/01/03 05:24:25;;;;;;;21.57;14.90;;;3.40;99.90;;;;;;5153548;27;20471;-29
2021/01/03 05:26:52;;;;;;;22.73;15.70;;;3.40;99.90;;;;;;5153915;27;20440;-28
2021/01/03 05:29:24;;;;;;;31.30;17.10;;;3.40;99.90;;;;;;5153990;27;20457;-28
2021/01/03 05:31:57;;;;;;;21.77;15.10;;;3.40;99.90;;;;;;5153648;27;20430;-27
2021/01/03 05:34:32;;;;;;;23.97;15.03;;;3.40;99.90;;;;;;5153621;27;20507;-28
2021/01/03 05:37:06;;;;;;;20.53;13.80;;;3.40;99.90;;;;;;5154119;27;20437;-28
2021/01/03 05:39:34;;;;;;;20.70;14.47;;;3.40;99.90;;;;;;5154187;27;21119;-28
2021/01/03 05:42:14;;;;;;;21.77;15.77;;;3.40;99.90;;;;;;5152701;27;20464;-28
2021/01/03 05:44:45;;;;;;;26.40;17.20;;;3.40;99.90;;;;;;5153451;27;20441;-28
2021/01/03 05:47:18;;;;;;;25.20;16.57;;;3.50;99.90;;;;;;5154119;27;20464;-29
2021/01/03 05:49:46;;;;;;;24.10;16.63;;;3.50;99.90;;;;;;5154171;27;21052;-29
2021/01/03 05:52:21;;;;;;;22.20;15.33;;;3.50;99.90;;;;;;5153518;27;20437;-29
2021/01/03 05:54:48;;;;;;;27.90;16.40;;;3.50;99.90;;;;;;5153335;27;20429;-28
2021/01/03 05:57:26;;;;;;;26.03;17.40;;;3.40;99.90;;;;;;5154037;27;20942;-30
2021/01/03 05:59:53;;;;;;;25.50;16.60;;;3.50;99.90;;;;;;5154177;27;20465;-28
2021/01/03 06:02:24;;;;;;;21.97;16.47;;;3.50;99.90;;;;;;5153801;27;20845;-29
2021/01/03 06:05:04;;;;;;;27.40;18.40;;;3.50;99.90;;;;;;5154290;27;20449;-30
2021/01/03 06:07:30;;;;;;;22.63;15.80;;;3.50;99.90;;;;;;5153027;27;20433;-30
2021/01/03 06:09:57;;;;;;;24.43;16.60;;;3.50;99.90;;;;;;5152519;27;20433;-29
2021/01/03 06:12:26;;;;;;;31.07;17.47;;;3.50;99.90;;;;;;5152370;27;20469;-28
2021/01/03 06:14:55;;;;;;;21.87;16.80;;;3.50;99.90;;;;;;5152679;27;20437;-28
2021/01/03 06:17:33;;;;;;;26.10;17.90;;;3.50;99.90;;;;;;5152949;27;20437;-27
2021/01/03 06:20:08;;;;;;;24.27;17.40;;;3.50;99.90;;;;;;5152654;27;20481;-28
2021/01/03 06:22:45;;;;;;;24.37;17.40;;;3.50;99.90;;;;;;5152938;27;20479;-28
2021/01/03 06:25:34;;;;;;;26.10;17.43;;;3.50;99.90;;;;;;5152048;27;20792;-28
2021/01/03 06:28:09;;;;;;;29.57;18.97;;;3.50;99.90;;;;;;5150858;27;20904;-29
2021/01/03 06:30:39;;;;;;;23.80;16.23;;;3.50;99.90;;;;;;5151746;27;20429;-31
2021/01/03 06:33:46;;;;;;;26.97;17.70;;;3.50;99.90;;;;;;5153432;27;20437;-27
2021/01/03 06:36:18;;;;;;;27.23;17.87;;;3.50;99.90;;;;;;5151501;27;20429;-28
2021/01/03 06:39:01;;;;;;;28.87;16.30;;;3.50;99.90;;;;;;5153237;27;20690;-28
2021/01/03 06:42:00;;;;;;;26.47;16.93;;;3.50;99.90;;;;;;5152966;27;20461;-29
2021/01/03 06:45:04;;;;;;;25.90;16.83;;;3.50;99.90;;;;;;5153002;27;20441;-29
2021/01/03 06:48:08;;;;;;;25.07;18.33;;;3.50;99.90;;;;;;5151790;27;20429;-27
2021/01/03 06:51:06;;;;;;;28.00;17.10;;;3.50;99.90;;;;;;5152267;27;20528;-29
2021/01/03 06:54:10;;;;;;;24.50;16.50;;;3.50;99.90;;;;;;5151275;27;20494;-28
2021/01/03 06:57:06;;;;;;;23.90;15.13;;;3.50;99.90;;;;;;5152220;27;20447;-28
2021/01/03 06:59:50;;;;;;;27.87;17.60;;;3.50;99.90;;;;;;5133432;27;20528;-30
2021/01/03 07:02:19;;;;;;;26.93;16.83;;;3.50;99.90;;;;;;5151611;27;20465;-28
2021/01/03 07:04:46;;;;;;;26.47;19.07;;;3.50;99.90;;;;;;5150984;27;21140;-28
2021/01/03 07:07:19;;;;;;;27.30;17.17;;;3.50;99.90;;;;;;5152292;27;20437;-27
2021/01/03 07:09:57;;;;;;;30.27;18.80;;;3.50;99.90;;;;;;5151259;27;20778;-27
2021/01/03 07:12:41;;;;;;;26.90;18.37;;;3.50;99.90;;;;;;5149834;27;20429;-28
2021/01/03 07:15:11;;;;;;;24.97;17.20;;;3.50;99.90;;;;;;5151405;27;21001;-30
2021/01/03 07:18:08;;;;;;;25.60;17.00;;;3.50;99.90;;;;;;5151883;27;20440;-28
2021/01/03 07:20:46;;;;;;;26.63;17.50;;;3.60;99.90;;;;;;5113186;27;20454;-27
2021/01/03 07:23:18;;;;;;;24.90;15.93;;;3.50;99.90;;;;;;5130759;27;20474;-28
2021/01/03 07:25:55;;;;;;;19.47;15.10;;;3.40;99.90;;;;;;5130758;27;20494;-29
2021/01/03 07:28:27;;;;;;;22.40;15.20;;;3.20;99.90;;;;;;5131402;27;20441;-27
2021/01/03 07:31:00;;;;;;;51.53;28.20;;;3.20;99.90;;;;;;5130494;27;20437;-29
2021/01/03 07:33:37;;;;;;;44.50;25.50;;;3.10;99.90;;;;;;5130518;27;20518;-27
2021/01/03 07:36:26;;;;;;;157.07;84.60;;;3.00;99.90;;;;;;5130246;27;20434;-27
2021/01/03 07:39:28;;;;;;;39.83;25.30;;;3.00;99.90;;;;;;5131066;27;20438;-28
2021/01/03 07:42:17;;;;;;;40.43;27.03;;;3.00;99.90;;;;;;5119013;27;20483;-28
2021/01/03 07:44:45;;;;;;;29.60;19.53;;;3.00;99.90;;;;;;5130050;28;20434;-27
2021/01/03 07:47:37;;;;;;;23.20;16.93;;;3.10;99.90;;;;;;5129905;28;20480;-28
2021/01/03 07:50:32;;;;;;;23.27;16.20;;;3.10;99.90;;;;;;5130291;28;20450;-28
2021/01/03 07:53:15;;;;;;;36.17;20.37;;;3.10;99.90;;;;;;5129439;28;20430;-30
2021/01/03 07:55:45;;;;;;;18.70;13.87;;;3.00;99.90;;;;;;5112239;28;20482;-29
2021/01/03 07:58:13;;;;;;;22.70;15.43;;;3.00;99.90;;;;;;5110003;28;20435;-28
2021/01/03 08:00:42;;;;;;;21.77;13.50;;;3.00;99.90;;;;;;5109298;28;20503;-28
2021/01/03 08:03:11;;;;;;;21.47;12.97;;;2.90;99.90;;;;;;5110043;28;20458;-28
2021/01/03 08:05:40;;;;;;;21.17;14.27;;;2.80;99.90;;;;;;5109282;28;20443;-27
2021/01/03 08:08:14;;;;;;;22.40;14.60;;;2.80;99.90;;;;;;5111373;28;20439;-27
2021/01/03 08:10:41;;;;;;;26.03;18.60;;;2.80;99.90;;;;;;5113414;28;20499;-28
2021/01/03 08:13:15;;;;;;;20.90;15.60;;;2.70;99.90;;;;;;5112548;28;20492;-28
2021/01/03 08:15:42;;;;;;;25.77;18.53;;;2.80;99.90;;;;;;5111259;28;20445;-28
2021/01/03 08:18:17;;;;;;;23.50;17.87;;;2.80;99.90;;;;;;5112686;27;20890;-28
2021/01/03 08:20:44;;;;;;;26.57;16.80;;;2.70;99.90;;;;;;5131697;27;20433;-29
2021/01/03 08:23:16;;;;;;;30.33;21.07;;;2.80;99.90;;;;;;5133012;27;20458;-29
2021/01/03 08:25:43;;;;;;;24.50;15.80;;;2.80;99.90;;;;;;5133165;27;20438;-31
2021/01/03 08:28:15;;;;;;;23.13;14.83;;;2.80;99.90;;;;;;5134030;27;20442;-27
2021/01/03 08:30:42;;;;;;;22.07;16.27;;;2.80;99.90;;;;;;5133662;27;20494;-27
2021/01/03 08:33:16;;;;;;;23.10;15.97;;;2.80;99.90;;;;;;5133532;27;20491;-28
2021/01/03 08:35:43;;;;;;;24.47;17.17;;;2.90;99.90;;;;;;5132677;27;20438;-27
2021/01/03 08:38:10;;;;;;;21.93;15.20;;;3.00;99.90;;;;;;5131542;27;20438;-28
2021/01/03 08:40:40;;;;;;;23.80;14.60;;;3.10;99.90;;;;;;5131483;27;20441;-28
2021/01/03 08:43:13;;;;;;;25.30;16.43;;;3.10;99.90;;;;;;5131226;27;20534;-27
2021/01/03 08:45:42;;;;;;;21.93;13.50;;;3.20;99.90;;;;;;5131772;27;20430;-28
2021/01/03 08:48:13;;;;;;;20.63;13.50;;;3.30;99.90;;;;;;5132201;27;20446;-28
2021/01/03 08:50:41;;;;;;;17.33;13.50;;;3.30;99.90;;;;;;5131409;27;20430;-27
2021/01/03 08:53:10;;;;;;;22.40;16.63;;;3.30;99.90;;;;;;5131207;27;20564;-29
2021/01/03 08:55:39;;;;;;;21.50;14.80;;;3.40;99.90;;;;;;5133465;27;20434;-28
2021/01/03 08:58:15;;;;;;;18.90;13.90;;;3.30;99.90;;;;;;5132200;27;20504;-28
2021/01/03 09:00:44;;;;;;;24.43;14.97;;;3.30;99.90;;;;;;5132466;27;20462;-28
2021/01/03 09:03:16;;;;;;;24.33;17.30;;;3.20;99.90;;;;;;5132823;27;20893;-29
2021/01/03 09:05:46;;;;;;;27.57;15.50;;;3.20;99.90;;;;;;5132042;27;20529;-29
2021/01/03 09:08:27;;;;;;;20.23;15.20;;;3.20;99.90;;;;;;5131482;27;20501;-27
2021/01/03 09:11:03;;;;;;;25.67;15.20;;;3.30;99.90;;;;;;5144119;27;20494;-28
2021/01/03 09:13:33;;;;;;;21.57;16.00;;;3.20;99.90;;;;;;5153770;27;20509;-29
2021/01/03 09:16:28;;;;;;;27.20;16.37;;;3.20;99.90;;;;;;5151928;27;20524;-27
2021/01/03 09:19:05;;;;;;;25.53;16.60;;;3.10;99.90;;;;;;5130567;27;20505;-30
2021/01/03 09:21:32;;;;;;;23.50;14.77;;;3.10;99.90;;;;;;5137985;27;20910;-27
2021/01/03 09:24:05;;;;;;;22.63;16.10;;;3.00;99.90;;;;;;5139376;27;20458;-29
2021/01/03 09:26:34;;;;;;;23.20;16.33;;;3.00;99.90;;;;;;5135833;27;20449;-28
2021/01/03 09:29:09;;;;;;;25.27;17.27;;;2.90;99.90;;;;;;5124188;27;20449;-27
2021/01/03 09:31:37;;;;;;;76.90;38.07;;;3.00;99.90;;;;;;5136122;27;20847;-29
2021/01/03 09:34:14;;;;;;;33.63;24.50;;;3.10;99.90;;;;;;5144738;27;20568;-29
2021/01/03 09:36:51;;;;;;;25.90;17.27;;;3.10;99.90;;;;;;5131810;27;20450;-28
2021/01/03 09:39:46;;;;;;;24.73;17.20;;;3.10;99.90;;;;;;5146261;27;20509;-27
2021/01/03 09:42:36;;;;;;;22.93;15.00;;;3.10;99.90;;;;;;5152178;27;21306;-27
2021/01/03 09:45:35;;;;;;;29.70;18.57;;;3.10;99.90;;;;;;5152045;27;21048;-30
2021/01/03 09:48:01;;;;;;;23.87;17.20;;;3.10;99.90;;;;;;5151784;27;20855;-27
2021/01/03 09:50:34;;;;;;;27.77;21.47;;;3.10;99.90;;;;;;5151553;27;20438;-26
2021/01/03 09:53:15;;;;;;;25.13;17.97;;;3.10;99.90;;;;;;5130850;27;20438;-30
2021/01/03 09:55:45;;;;;;;24.33;16.90;;;3.10;99.90;;;;;;5131569;27;20454;-27
2021/01/03 09:58:12;;;;;;;20.10;15.03;;;3.10;99.90;;;;;;5131286;27;21249;-26
2021/01/03 10:01:04;;;;;;;26.47;17.87;;;3.10;99.90;;;;;;5131662;27;20898;-27
2021/01/03 10:03:38;;;;;;;24.80;17.77;;;3.10;99.90;;;;;;5105896;27;20497;-29
2021/01/03 10:06:17;;;;;;;22.70;15.33;;;3.10;99.90;;;;;;5131908;27;20442;-30
2021/01/03 10:08:45;;;;;;;20.63;15.60;;;3.20;99.90;;;;;;5137986;27;20802;-31
2021/01/03 10:11:28;;;;;;;20.53;15.87;;;3.30;99.90;;;;;;5136308;27;20453;-26
2021/01/03 10:13:56;;;;;;;22.83;16.27;;;3.40;99.90;;;;;;5130909;27;20453;-29
2021/01/03 10:16:26;;;;;;;23.67;17.87;;;3.50;99.90;;;;;;5130127;27;21124;-27
2021/01/03 10:18:53;;;;;;;23.13;16.60;;;3.70;99.90;;;;;;5130977;27;20530;-28
2021/01/03 10:21:28;;;;;;;25.10;18.00;;;3.80;99.90;;;;;;5130278;27;21092;-28
2021/01/03 10:23:58;;;;;;;21.07;16.07;;;3.90;99.90;;;;;;5129946;27;20434;-29
2021/01/03 10:26:28;;;;;;;21.83;16.07;;;4.00;99.90;;;;;;5129030;27;20464;-28
2021/01/03 10:28:55;;;;;;;24.90;15.17;;;4.10;99.90;;;;;;5129301;27;20430;-28
2021/01/03 10:31:24;;;;;;;27.37;18.23;;;4.20;99.90;;;;;;5140112;27;20835;-28
2021/01/03 10:33:51;;;;;;;20.30;14.97;;;4.20;99.90;;;;;;5148861;27;20536;-29
2021/01/03 10:36:19;;;;;;;19.97;16.47;;;4.30;99.90;;;;;;5141691;27;20442;-31
2021/01/03 10:38:46;;;;;;;23.70;16.30;;;4.40;99.90;;;;;;5130988;27;20442;-27
2021/01/03 10:41:13;;;;;;;23.47;17.17;;;4.60;99.90;;;;;;5129553;27;20458;-28
2021/01/03 10:43:39;;;;;;;18.80;15.50;;;4.70;99.90;;;;;;5129309;27;20494;-28
2021/01/03 10:46:06;;;;;;;21.70;16.37;;;5.00;99.90;;;;;;5130463;27;20426;-29
2021/01/03 10:48:33;;;;;;;21.53;14.47;;;5.30;99.90;;;;;;5132543;27;20438;-28
2021/01/03 10:51:00;;;;;;;18.70;13.93;;;5.40;99.90;;;;;;5147494;27;20456;-30
2021/01/03 10:53:26;;;;;;;20.67;14.47;;;5.40;99.90;;;;;;5149746;27;20468;-27
2021/01/03 10:55:53;;;;;;;16.77;14.27;;;5.40;99.90;;;;;;5128667;27;20461;-28
2021/01/03 10:58:20;;;;;;;19.70;14.20;;;5.50;99.90;;;;;;5129847;27;20438;-29
2021/01/03 11:00:47;;;;;;;23.07;15.20;;;5.50;99.90;;;;;;5130303;27;20434;-28
2021/01/03 11:03:13;;;;;;;20.00;14.30;;;5.40;99.90;;;;;;5127297;27;21143;-28
2021/01/03 11:05:41;;;;;;;20.77;15.30;;;5.30;99.90;;;;;;5126703;27;20438;-30
2021/01/03 11:08:07;;;;;;;20.50;14.93;;;5.20;99.90;;;;;;5123596;27;20437;-29
2021/01/03 11:10:34;;;;;;;18.50;14.73;;;5.10;99.90;;;;;;5124474;27;20816;-28
2021/01/03 11:13:00;;;;;;;19.07;14.97;;;5.10;99.90;;;;;;5125561;27;20750;-28
2021/01/03 11:15:27;;;;;;;21.27;15.43;;;5.10;99.90;;;;;;5125562;27;20697;-28
2021/01/03 11:17:54;;;;;;;19.10;15.27;;;5.10;99.90;;;;;;5126369;27;20461;-28
2021/01/03 11:20:21;;;;;;;25.60;18.73;;;5.00;99.90;;;;;;5123906;27;20918;-29
2021/01/03 11:22:49;;;;;;;22.07;16.40;;;5.00;99.90;;;;;;5124819;27;20611;-28
2021/01/03 11:25:16;;;;;;;19.40;14.70;;;5.00;99.90;;;;;;5124609;27;20805;-30
2021/01/03 11:27:42;;;;;;;23.83;16.07;;;5.00;99.90;;;;;;5124742;27;20723;-32
2021/01/03 11:30:10;;;;;;;21.10;15.23;;;4.80;99.90;;;;;;5121602;27;21050;-29
2021/01/03 11:32:37;;;;;;;21.17;16.63;;;4.60;99.90;;;;;;5123190;27;20863;-28
2021/01/03 11:35:06;;;;;;;19.43;16.00;;;4.50;99.90;;;;;;5124197;27;20460;-29
2021/01/03 11:37:32;;;;;;;18.03;13.87;;;4.50;99.90;;;;;;5123335;27;20816;-28
2021/01/03 11:40:00;;;;;;;20.20;15.97;;;4.60;99.90;;;;;;5124978;27;20495;-28
2021/01/03 11:42:32;;;;;;;18.83;14.13;;;4.70;99.90;;;;;;5124377;27;20492;-28
2021/01/03 11:45:00;;;;;;;19.37;15.53;;;4.70;99.90;;;;;;5123674;27;20538;-28
2021/01/03 11:47:30;;;;;;;19.77;15.60;;;4.80;99.90;;;;;;5124066;28;20721;-27
2021/01/03 11:49:57;;;;;;;21.70;15.40;;;4.90;99.90;;;;;;5123844;28;20537;-29
2021/01/03 11:52:25;;;;;;;17.70;15.10;;;4.90;99.90;;;;;;5125131;28;20886;-30
2021/01/03 11:54:51;;;;;;;17.67;14.70;;;4.90;99.90;;;;;;5123163;28;20526;-27
2021/01/03 11:57:19;;;;;;;17.90;15.20;;;4.70;99.90;;;;;;5122670;28;20617;-29
2021/01/03 11:59:45;;;;;;;19.57;14.67;;;4.60;99.90;;;;;;5125056;28;20483;-30
2021/01/03 12:02:12;;;;;;;18.70;14.13;;;4.60;99.90;;;;;;5123544;28;20561;-29
2021/01/03 12:04:39;;;;;;;17.57;15.07;;;4.60;99.90;;;;;;5124136;28;20804;-29
2021/01/03 12:07:09;;;;;;;19.90;15.40;;;4.60;99.90;;;;;;5124078;28;20806;-27
2021/01/03 12:09:35;;;;;;;18.47;15.63;;;4.70;99.90;;;;;;5124378;28;20469;-29
2021/01/03 12:12:05;;;;;;;18.13;15.00;;;4.70;99.90;;;;;;5121482;28;20482;-30
2021/01/03 12:14:32;;;;;;;19.93;15.63;;;4.60;99.90;;;;;;5125384;28;20811;-28
2021/01/03 12:17:01;;;;;;;18.20;14.73;;;4.60;99.90;;;;;;5123589;28;20592;-27
2021/01/03 12:19:28;;;;;;;23.23;15.73;;;4.50;99.90;;;;;;5124664;28;20473;-28
2021/01/03 12:21:56;;;;;;;22.33;16.13;;;4.50;99.90;;;;;;5125582;28;20698;-27
2021/01/03 12:24:23;;;;;;;19.93;16.30;;;4.60;99.90;;;;;;5124509;28;20827;-29
2021/01/03 12:26:50;;;;;;;20.33;16.07;;;4.50;99.90;;;;;;5122789;28;20539;-28
2021/01/03 12:29:18;;;;;;;23.27;15.83;;;4.40;99.90;;;;;;5123346;28;20458;-30
2021/01/03 12:31:49;;;;;;;19.13;15.03;;;4.40;99.90;;;;;;5124956;28;20494;-28
2021/01/03 12:34:17;;;;;;;18.17;14.20;;;4.40;99.90;;;;;;5123727;28;20893;-29
2021/01/03 12:36:44;;;;;;;21.03;15.63;;;4.30;99.90;;;;;;5123415;28;20887;-27
2021/01/03 12:39:13;;;;;;;19.77;15.20;;;4.30;99.90;;;;;;5122512;28;20618;-28
2021/01/03 12:41:39;;;;;;;20.50;16.17;;;4.30;99.90;;;;;;5127967;27;20802;-28
2021/01/03 12:44:08;;;;;;;21.10;15.67;;;4.30;99.90;;;;;;5132022;27;20517;-30
2021/01/03 12:46:36;;;;;;;21.20;16.60;;;4.30;99.90;;;;;;5111193;28;20852;-29
2021/01/03 12:49:06;;;;;;;18.43;15.00;;;4.30;99.90;;;;;;5127784;27;20444;-28
2021/01/03 12:51:32;;;;;;;21.40;16.50;;;4.30;99.90;;;;;;5129014;27;20500;-27
2021/01/03 12:54:00;;;;;;;18.07;15.20;;;4.40;99.90;;;;;;5130952;27;20457;-28
2021/01/03 12:56:28;;;;;;;20.10;15.43;;;4.40;99.90;;;;;;5140162;27;20900;-29